To NAV CANADA Home Page Login to a new session Search on AWWS site Feedback and Comments Disclaimer Vers la page française équivalente Tips FAQ What's new on the site To the Forecasts and Observations / NOTAM section To "File a Flight Plan" website Publications and other links Update of the User's profile FIC Telephone Numbers My Weather Data Folder Route Weather Data Regional Weather Data Local Weather Data To the Forecasts and Observations / NOTAM section
Request Generated 08/31/2016 at 02:05:37 UTC . Weather information available at that time is displayed.

METAR/TAF

NORTH BATTLEFORD/SK    (show WxCam)

METAR CYQW 310000Z AUTO 10013G18KT CLR 22/08 A3019 RMK WX MISG VIS
MISG PCPN MISG SLP233 DENSITY ALT 2600FT=
METAR CYQW 302300Z AUTO 10012G18KT CLR 22/08 A3020 RMK WX MISG VIS
MISG PCPN MISG SLP237 DENSITY ALT 2700FT=

TAF CYQW 302338Z 3100/3112 10015G25KT P6SM SCT140
RMK FCST BASED ON AUTO OBS. VIS SENSOR INOP NXT FCST BY 310600Z=
Your time UTC time
Weather data provided by Environment Canada and NAV CANADA